sensor_id;sensor_type;location;lat;lon;timestamp;temperature;humidity
20479;DHT22;10398;52.490;13.434;2023-04-16T00:02:14;12.60;99.90
20479;DHT22;10398;52.490;13.434;2023-04-16T00:04:40;12.60;99.90
20479;DHT22;10398;52.490;13.434;2023-04-16T00:07:06;12.70;99.90
20479;DHT22;10398;52.490;13.434;2023-04-16T00:09:32;12.70;99.90
20479;DHT22;10398;52.490;13.434;2023-04-16T00:11:58;12.70;99.90
20479;DHT22;10398;52.490;13.434;2023-04-16T00:14:23;12.70;99.90
20479;DHT22;10398;52.490;13.434;2023-04-16T00:16:49;12.70;99.90
20479;DHT22;10398;52.490;13.434;2023-04-16T00:19:15;12.60;99.90
20479;DHT22;10398;52.490;13.434;2023-04-16T00:21:41;12.80;99.90
20479;DHT22;10398;52.490;13.434;2023-04-16T00:24:07;12.80;99.90
20479;DHT22;10398;52.490;13.434;2023-04-16T00:26:32;12.80;99.90
20479;DHT22;10398;52.490;13.434;2023-04-16T00:31:31;12.80;99.90
20479;DHT22;10398;52.490;13.434;2023-04-16T00:33:58;12.90;99.90
20479;DHT22;10398;52.490;13.434;2023-04-16T00:36:25;12.80;99.90
20479;DHT22;10398;52.490;13.434;2023-04-16T00:38:52;12.80;99.90
20479;DHT22;10398;52.490;13.434;2023-04-16T00:41:18;12.80;99.90
20479;DHT22;10398;52.490;13.434;2023-04-16T00:43:44;12.80;99.90
20479;DHT22;10398;52.490;13.434;2023-04-16T00:46:10;12.90;99.90
20479;DHT22;10398;52.490;13.434;2023-04-16T00:48:37;13.00;99.90
20479;DHT22;10398;52.490;13.434;2023-04-16T00:51:04;13.00;99.90
20479;DHT22;10398;52.490;13.434;2023-04-16T00:53:30;12.90;99.90
20479;DHT22;10398;52.490;13.434;2023-04-16T00:55:57;12.90;99.90
20479;DHT22;10398;52.490;13.434;2023-04-16T00:58:23;13.00;99.90
20479;DHT22;10398;52.490;13.434;2023-04-16T01:00:49;13.00;99.90
20479;DHT22;10398;52.490;13.434;2023-04-16T01:03:15;13.00;99.90
20479;DHT22;10398;52.490;13.434;2023-04-16T01:05:41;13.00;99.90
20479;DHT22;10398;52.490;13.434;2023-04-16T01:08:15;12.90;99.90
20479;DHT22;10398;52.490;13.434;2023-04-16T01:10:41;12.80;99.90
20479;DHT22;10398;52.490;13.434;2023-04-16T01:13:07;12.80;99.90
20479;DHT22;10398;52.490;13.434;2023-04-16T01:15:32;12.80;99.90
20479;DHT22;10398;52.490;13.434;2023-04-16T01:17:58;12.90;99.90
20479;DHT22;10398;52.490;13.434;2023-04-16T01:20:23;13.00;99.90
20479;DHT22;10398;52.490;13.434;2023-04-16T01:22:50;13.00;99.90
20479;DHT22;10398;52.490;13.434;2023-04-16T01:25:15;12.90;99.90
20479;DHT22;10398;52.490;13.434;2023-04-16T01:27:42;12.90;99.90
20479;DHT22;10398;52.490;13.434;2023-04-16T01:30:08;12.90;99.90
20479;DHT22;10398;52.490;13.434;2023-04-16T01:32:34;12.90;99.90
20479;DHT22;10398;52.490;13.434;2023-04-16T01:34:59;12.90;99.90
20479;DHT22;10398;52.490;13.434;2023-04-16T01:37:25;12.90;99.90
20479;DHT22;10398;52.490;13.434;2023-04-16T01:39:51;12.90;99.90
20479;DHT22;10398;52.490;13.434;2023-04-16T01:42:16;12.90;99.90
20479;DHT22;10398;52.490;13.434;2023-04-16T01:44:42;12.90;99.90
20479;DHT22;10398;52.490;13.434;2023-04-16T01:47:08;13.00;99.90
20479;DHT22;10398;52.490;13.434;2023-04-16T01:49:33;13.10;99.90
20479;DHT22;10398;52.490;13.434;2023-04-16T01:51:59;13.10;99.90
20479;DHT22;10398;52.490;13.434;2023-04-16T01:54:27;13.00;99.90
20479;DHT22;10398;52.490;13.434;2023-04-16T01:56:53;13.00;99.90
20479;DHT22;10398;52.490;13.434;2023-04-16T01:59:18;13.00;99.90
20479;DHT22;10398;52.490;13.434;2023-04-16T02:01:45;13.10;99.90
20479;DHT22;10398;52.490;13.434;2023-04-16T02:04:11;13.10;99.90
20479;DHT22;10398;52.490;13.434;2023-04-16T02:06:37;13.00;99.90
20479;DHT22;10398;52.490;13.434;2023-04-16T02:09:02;13.00;99.90
20479;DHT22;10398;52.490;13.434;2023-04-16T02:11:28;12.90;99.90
20479;DHT22;10398;52.490;13.434;2023-04-16T02:13:54;12.90;99.90
20479;DHT22;10398;52.490;13.434;2023-04-16T02:16:19;12.90;99.90
20479;DHT22;10398;52.490;13.434;2023-04-16T02:18:45;12.90;99.90
20479;DHT22;10398;52.490;13.434;2023-04-16T02:21:10;13.00;99.90
20479;DHT22;10398;52.490;13.434;2023-04-16T02:23:36;13.10;99.90
20479;DHT22;10398;52.490;13.434;2023-04-16T02:26:05;13.10;99.90
20479;DHT22;10398;52.490;13.434;2023-04-16T02:28:31;13.10;99.90
20479;DHT22;10398;52.490;13.434;2023-04-16T02:30:56;13.10;99.90
20479;DHT22;10398;52.490;13.434;2023-04-16T02:33:22;13.10;99.90
20479;DHT22;10398;52.490;13.434;2023-04-16T02:35:50;13.00;99.90
20479;DHT22;10398;52.490;13.434;2023-04-16T02:38:16;13.00;99.90
20479;DHT22;10398;52.490;13.434;2023-04-16T02:40:41;13.00;99.90
20479;DHT22;10398;52.490;13.434;2023-04-16T02:43:08;13.00;99.90
20479;DHT22;10398;52.490;13.434;2023-04-16T02:45:33;12.90;99.90
20479;DHT22;10398;52.490;13.434;2023-04-16T02:47:59;13.00;99.90
20479;DHT22;10398;52.490;13.434;2023-04-16T02:50:25;13.00;99.90
20479;DHT22;10398;52.490;13.434;2023-04-16T02:52:51;12.90;99.90
20479;DHT22;10398;52.490;13.434;2023-04-16T02:55:17;12.80;99.90
20479;DHT22;10398;52.490;13.434;2023-04-16T02:57:42;12.90;99.90
20479;DHT22;10398;52.490;13.434;2023-04-16T03:00:08;12.80;99.90
20479;DHT22;10398;52.490;13.434;2023-04-16T03:02:34;12.70;99.90
20479;DHT22;10398;52.490;13.434;2023-04-16T03:05:00;12.70;99.90
20479;DHT22;10398;52.490;13.434;2023-04-16T03:07:26;12.60;99.90
20479;DHT22;10398;52.490;13.434;2023-04-16T03:09:52;12.70;99.90
20479;DHT22;10398;52.490;13.434;2023-04-16T03:12:17;12.60;99.90
20479;DHT22;10398;52.490;13.434;2023-04-16T03:14:43;12.70;99.90
20479;DHT22;10398;52.490;13.434;2023-04-16T03:17:08;12.60;99.90
20479;DHT22;10398;52.490;13.434;2023-04-16T03:19:34;12.70;99.90
20479;DHT22;10398;52.490;13.434;2023-04-16T03:22:00;12.70;99.90
20479;DHT22;10398;52.490;13.434;2023-04-16T03:24:25;12.70;99.90
20479;DHT22;10398;52.490;13.434;2023-04-16T03:26:52;12.70;99.90
20479;DHT22;10398;52.490;13.434;2023-04-16T03:29:18;12.70;99.90
20479;DHT22;10398;52.490;13.434;2023-04-16T03:31:43;12.60;99.90
20479;DHT22;10398;52.490;13.434;2023-04-16T03:34:09;12.60;99.90
20479;DHT22;10398;52.490;13.434;2023-04-16T03:36:35;12.70;99.90
20479;DHT22;10398;52.490;13.434;2023-04-16T03:39:00;12.70;99.90
20479;DHT22;10398;52.490;13.434;2023-04-16T03:41:26;12.70;99.90
20479;DHT22;10398;52.490;13.434;2023-04-16T03:43:51;12.70;99.90
20479;DHT22;10398;52.490;13.434;2023-04-16T03:46:17;12.60;99.90
20479;DHT22;10398;52.490;13.434;2023-04-16T03:48:43;12.70;99.90
20479;DHT22;10398;52.490;13.434;2023-04-16T03:51:08;12.70;99.90
20479;DHT22;10398;52.490;13.434;2023-04-16T03:53:34;12.70;99.90
20479;DHT22;10398;52.490;13.434;2023-04-16T03:55:59;12.70;99.90
20479;DHT22;10398;52.490;13.434;2023-04-16T03:58:25;12.60;99.90
20479;DHT22;10398;52.490;13.434;2023-04-16T04:00:54;12.60;99.90
20479;DHT22;10398;52.490;13.434;2023-04-16T04:03:19;12.60;99.90
20479;DHT22;10398;52.490;13.434;2023-04-16T04:05:45;12.70;99.90
20479;DHT22;10398;52.490;13.434;2023-04-16T04:08:11;12.60;99.90
20479;DHT22;10398;52.490;13.434;2023-04-16T04:10:37;12.70;99.90
20479;DHT22;10398;52.490;13.434;2023-04-16T04:13:04;12.70;99.90
20479;DHT22;10398;52.490;13.434;2023-04-16T04:15:30;12.60;99.90
20479;DHT22;10398;52.490;13.434;2023-04-16T04:17:56;12.50;99.90
20479;DHT22;10398;52.490;13.434;2023-04-16T04:20:22;12.50;99.90
20479;DHT22;10398;52.490;13.434;2023-04-16T04:22:48;12.60;99.90
20479;DHT22;10398;52.490;13.434;2023-04-16T04:25:15;12.60;99.90
20479;DHT22;10398;52.490;13.434;2023-04-16T04:27:40;12.70;99.90
20479;DHT22;10398;52.490;13.434;2023-04-16T04:30:07;12.70;99.90
20479;DHT22;10398;52.490;13.434;2023-04-16T04:32:32;12.70;99.90
20479;DHT22;10398;52.490;13.434;2023-04-16T04:35:01;12.70;99.90
20479;DHT22;10398;52.490;13.434;2023-04-16T04:37:26;12.70;99.90
20479;DHT22;10398;52.490;13.434;2023-04-16T04:39:52;12.60;99.90
20479;DHT22;10398;52.490;13.434;2023-04-16T04:42:20;12.50;99.90
20479;DHT22;10398;52.490;13.434;2023-04-16T04:44:47;12.40;99.90
20479;DHT22;10398;52.490;13.434;2023-04-16T04:47:13;12.40;99.90
20479;DHT22;10398;52.490;13.434;2023-04-16T04:49:39;12.40;99.90
20479;DHT22;10398;52.490;13.434;2023-04-16T04:52:04;12.50;99.90
20479;DHT22;10398;52.490;13.434;2023-04-16T04:54:31;12.60;99.90
20479;DHT22;10398;52.490;13.434;2023-04-16T04:56:57;12.60;99.90
20479;DHT22;10398;52.490;13.434;2023-04-16T04:59:23;12.50;99.90
20479;DHT22;10398;52.490;13.434;2023-04-16T05:01:49;12.50;99.90
20479;DHT22;10398;52.490;13.434;2023-04-16T05:04:15;12.50;99.90
20479;DHT22;10398;52.490;13.434;2023-04-16T05:06:41;12.60;99.90
20479;DHT22;10398;52.490;13.434;2023-04-16T05:09:07;12.70;99.90
20479;DHT22;10398;52.490;13.434;2023-04-16T05:11:40;12.70;99.90
20479;DHT22;10398;52.490;13.434;2023-04-16T05:14:06;12.80;99.90
20479;DHT22;10398;52.490;13.434;2023-04-16T05:16:37;12.60;99.90
20479;DHT22;10398;52.490;13.434;2023-04-16T05:19:03;12.50;99.90
20479;DHT22;10398;52.490;13.434;2023-04-16T05:21:28;12.40;99.90
20479;DHT22;10398;52.490;13.434;2023-04-16T05:23:54;12.50;99.90
20479;DHT22;10398;52.490;13.434;2023-04-16T05:26:20;12.60;99.90
20479;DHT22;10398;52.490;13.434;2023-04-16T05:28:45;12.50;99.90
20479;DHT22;10398;52.490;13.434;2023-04-16T05:31:11;12.60;99.90
20479;DHT22;10398;52.490;13.434;2023-04-16T05:33:40;12.50;99.90
20479;DHT22;10398;52.490;13.434;2023-04-16T05:36:05;12.50;99.90
20479;DHT22;10398;52.490;13.434;2023-04-16T05:38:31;12.60;99.90
20479;DHT22;10398;52.490;13.434;2023-04-16T05:40:57;12.60;99.90
20479;DHT22;10398;52.490;13.434;2023-04-16T05:43:23;12.60;99.90
20479;DHT22;10398;52.490;13.434;2023-04-16T05:45:49;12.60;99.90
20479;DHT22;10398;52.490;13.434;2023-04-16T05:48:14;12.50;99.90
20479;DHT22;10398;52.490;13.434;2023-04-16T05:50:40;12.50;99.90
20479;DHT22;10398;52.490;13.434;2023-04-16T05:53:07;12.50;99.90
20479;DHT22;10398;52.490;13.434;2023-04-16T05:55:33;12.50;99.90
20479;DHT22;10398;52.490;13.434;2023-04-16T05:58:00;12.50;99.90
20479;DHT22;10398;52.490;13.434;2023-04-16T06:00:28;12.40;99.90
20479;DHT22;10398;52.490;13.434;2023-04-16T06:02:54;12.50;99.90
20479;DHT22;10398;52.490;13.434;2023-04-16T06:05:20;12.50;99.90
20479;DHT22;10398;52.490;13.434;2023-04-16T06:07:46;12.50;99.90
20479;DHT22;10398;52.490;13.434;2023-04-16T06:10:11;12.50;99.90
20479;DHT22;10398;52.490;13.434;2023-04-16T06:12:37;12.50;99.90
20479;DHT22;10398;52.490;13.434;2023-04-16T06:15:07;12.50;99.90
20479;DHT22;10398;52.490;13.434;2023-04-16T06:17:35;12.50;99.90
20479;DHT22;10398;52.490;13.434;2023-04-16T06:20:01;12.50;99.90
20479;DHT22;10398;52.490;13.434;2023-04-16T06:22:27;12.60;99.90
20479;DHT22;10398;52.490;13.434;2023-04-16T06:24:53;12.50;99.90
20479;DHT22;10398;52.490;13.434;2023-04-16T06:27:18;12.50;99.90
20479;DHT22;10398;52.490;13.434;2023-04-16T06:29:44;12.50;99.90
20479;DHT22;10398;52.490;13.434;2023-04-16T06:32:10;12.60;99.90
20479;DHT22;10398;52.490;13.434;2023-04-16T06:34:36;12.70;99.90
20479;DHT22;10398;52.490;13.434;2023-04-16T06:37:02;12.60;99.90
20479;DHT22;10398;52.490;13.434;2023-04-16T06:39:28;12.60;99.90
20479;DHT22;10398;52.490;13.434;2023-04-16T06:41:54;12.60;99.90
20479;DHT22;10398;52.490;13.434;2023-04-16T06:44:20;12.60;99.90
20479;DHT22;10398;52.490;13.434;2023-04-16T06:46:46;12.70;99.90
20479;DHT22;10398;52.490;13.434;2023-04-16T06:49:11;12.80;99.90
20479;DHT22;10398;52.490;13.434;2023-04-16T06:51:37;12.80;99.90
20479;DHT22;10398;52.490;13.434;2023-04-16T06:54:03;12.80;99.90
20479;DHT22;10398;52.490;13.434;2023-04-16T06:56:28;12.70;99.90
20479;DHT22;10398;52.490;13.434;2023-04-16T06:58:54;12.60;99.90
20479;DHT22;10398;52.490;13.434;2023-04-16T07:01:22;12.70;99.90
20479;DHT22;10398;52.490;13.434;2023-04-16T07:03:48;12.80;99.90
20479;DHT22;10398;52.490;13.434;2023-04-16T07:06:13;12.70;99.90
20479;DHT22;10398;52.490;13.434;2023-04-16T07:08:39;12.80;99.90
20479;DHT22;10398;52.490;13.434;2023-04-16T07:11:04;12.80;99.90
20479;DHT22;10398;52.490;13.434;2023-04-16T07:13:30;12.80;99.90
20479;DHT22;10398;52.490;13.434;2023-04-16T07:15:56;12.80;99.90
20479;DHT22;10398;52.490;13.434;2023-04-16T07:18:21;12.80;99.90
20479;DHT22;10398;52.490;13.434;2023-04-16T07:20:47;12.80;99.90
20479;DHT22;10398;52.490;13.434;2023-04-16T07:23:13;12.80;99.90
20479;DHT22;10398;52.490;13.434;2023-04-16T07:25:38;12.90;99.90
20479;DHT22;10398;52.490;13.434;2023-04-16T07:28:04;12.90;99.90
20479;DHT22;10398;52.490;13.434;2023-04-16T07:30:30;12.90;99.90
20479;DHT22;10398;52.490;13.434;2023-04-16T07:33:05;12.90;99.90
20479;DHT22;10398;52.490;13.434;2023-04-16T07:35:31;12.80;99.90
20479;DHT22;10398;52.490;13.434;2023-04-16T07:37:56;12.70;99.90
20479;DHT22;10398;52.490;13.434;2023-04-16T07:40:23;12.70;99.90
20479;DHT22;10398;52.490;13.434;2023-04-16T07:42:49;12.60;99.90
20479;DHT22;10398;52.490;13.434;2023-04-16T07:45:17;12.60;99.90
20479;DHT22;10398;52.490;13.434;2023-04-16T07:47:42;12.60;99.90
20479;DHT22;10398;52.490;13.434;2023-04-16T07:50:10;12.60;99.90
20479;DHT22;10398;52.490;13.434;2023-04-16T07:52:35;12.60;99.90
20479;DHT22;10398;52.490;13.434;2023-04-16T07:55:03;12.60;99.90
20479;DHT22;10398;52.490;13.434;2023-04-16T07:57:29;12.60;99.90
20479;DHT22;10398;52.490;13.434;2023-04-16T07:59:55;12.60;99.90
20479;DHT22;10398;52.490;13.434;2023-04-16T08:02:20;12.70;99.90
20479;DHT22;10398;52.490;13.434;2023-04-16T08:04:46;12.70;99.90
20479;DHT22;10398;52.490;13.434;2023-04-16T08:07:12;12.60;99.90
20479;DHT22;10398;52.490;13.434;2023-04-16T08:09:46;12.70;99.90
20479;DHT22;10398;52.490;13.434;2023-04-16T08:12:13;12.70;99.90
20479;DHT22;10398;52.490;13.434;2023-04-16T08:14:38;12.60;99.90
20479;DHT22;10398;52.490;13.434;2023-04-16T08:17:05;12.60;99.90
20479;DHT22;10398;52.490;13.434;2023-04-16T08:19:31;12.70;99.90
20479;DHT22;10398;52.490;13.434;2023-04-16T08:21:56;12.80;99.90
20479;DHT22;10398;52.490;13.434;2023-04-16T08:24:22;12.70;99.90
20479;DHT22;10398;52.490;13.434;2023-04-16T08:26:48;12.70;99.90
20479;DHT22;10398;52.490;13.434;2023-04-16T08:29:13;12.80;99.90
20479;DHT22;10398;52.490;13.434;2023-04-16T08:31:39;12.70;99.90
20479;DHT22;10398;52.490;13.434;2023-04-16T08:34:05;12.70;99.90
20479;DHT22;10398;52.490;13.434;2023-04-16T08:36:31;12.70;99.90
20479;DHT22;10398;52.490;13.434;2023-04-16T08:38:56;12.70;99.90
20479;DHT22;10398;52.490;13.434;2023-04-16T08:41:23;12.80;99.90
20479;DHT22;10398;52.490;13.434;2023-04-16T08:43:50;12.80;99.90
20479;DHT22;10398;52.490;13.434;2023-04-16T08:46:20;12.80;99.90
20479;DHT22;10398;52.490;13.434;2023-04-16T08:48:48;12.80;99.90
20479;DHT22;10398;52.490;13.434;2023-04-16T08:51:16;12.80;99.90
20479;DHT22;10398;52.490;13.434;2023-04-16T08:53:52;12.80;99.90
20479;DHT22;10398;52.490;13.434;2023-04-16T08:56:27;12.80;99.90
20479;DHT22;10398;52.490;13.434;2023-04-16T08:58:54;12.80;99.90
20479;DHT22;10398;52.490;13.434;2023-04-16T09:01:20;12.80;99.90
20479;DHT22;10398;52.490;13.434;2023-04-16T09:03:47;12.80;99.90
20479;DHT22;10398;52.490;13.434;2023-04-16T09:06:14;12.80;99.90
20479;DHT22;10398;52.490;13.434;2023-04-16T09:08:44;12.80;99.90
20479;DHT22;10398;52.490;13.434;2023-04-16T09:11:16;12.80;99.90
20479;DHT22;10398;52.490;13.434;2023-04-16T09:13:42;12.90;99.90
20479;DHT22;10398;52.490;13.434;2023-04-16T09:16:08;12.80;99.90
20479;DHT22;10398;52.490;13.434;2023-04-16T09:18:35;12.80;99.90
20479;DHT22;10398;52.490;13.434;2023-04-16T09:21:01;12.80;99.90
20479;DHT22;10398;52.490;13.434;2023-04-16T09:23:28;12.80;99.90
20479;DHT22;10398;52.490;13.434;2023-04-16T09:25:55;12.80;99.90
20479;DHT22;10398;52.490;13.434;2023-04-16T09:28:40;12.80;99.90
20479;DHT22;10398;52.490;13.434;2023-04-16T09:31:07;12.80;99.90
20479;DHT22;10398;52.490;13.434;2023-04-16T09:33:33;12.90;99.90
20479;DHT22;10398;52.490;13.434;2023-04-16T09:35:59;12.90;99.90
20479;DHT22;10398;52.490;13.434;2023-04-16T09:38:25;13.00;99.90
20479;DHT22;10398;52.490;13.434;2023-04-16T09:41:07;13.10;99.90
20479;DHT22;10398;52.490;13.434;2023-04-16T09:43:33;13.10;99.90
20479;DHT22;10398;52.490;13.434;2023-04-16T09:45:59;13.10;99.90
20479;DHT22;10398;52.490;13.434;2023-04-16T09:48:32;13.10;99.90
20479;DHT22;10398;52.490;13.434;2023-04-16T09:50:59;13.20;99.90
20479;DHT22;10398;52.490;13.434;2023-04-16T09:53:30;13.10;99.90
20479;DHT22;10398;52.490;13.434;2023-04-16T09:55:57;13.10;99.90
20479;DHT22;10398;52.490;13.434;2023-04-16T09:58:24;13.10;99.90
20479;DHT22;10398;52.490;13.434;2023-04-16T10:01:16;13.10;99.90
20479;DHT22;10398;52.490;13.434;2023-04-16T10:03:41;13.10;99.90
20479;DHT22;10398;52.490;13.434;2023-04-16T10:06:17;13.20;99.90
20479;DHT22;10398;52.490;13.434;2023-04-16T10:08:47;13.20;99.90
20479;DHT22;10398;52.490;13.434;2023-04-16T10:11:15;13.20;99.90
20479;DHT22;10398;52.490;13.434;2023-04-16T10:13:40;13.20;99.90
20479;DHT22;10398;52.490;13.434;2023-04-16T10:16:09;13.20;99.90
20479;DHT22;10398;52.490;13.434;2023-04-16T10:18:37;13.10;99.90
20479;DHT22;10398;52.490;13.434;2023-04-16T10:21:03;13.10;99.90
20479;DHT22;10398;52.490;13.434;2023-04-16T10:23:29;13.20;99.90
20479;DHT22;10398;52.490;13.434;2023-04-16T10:25:55;13.10;99.90
20479;DHT22;10398;52.490;13.434;2023-04-16T10:28:22;13.10;99.90
20479;DHT22;10398;52.490;13.434;2023-04-16T10:30:50;13.10;99.90
20479;DHT22;10398;52.490;13.434;2023-04-16T10:33:31;13.10;99.90
20479;DHT22;10398;52.490;13.434;2023-04-16T10:36:14;13.10;99.90
20479;DHT22;10398;52.490;13.434;2023-04-16T10:38:48;13.10;99.90
20479;DHT22;10398;52.490;13.434;2023-04-16T10:41:14;13.20;99.90
20479;DHT22;10398;52.490;13.434;2023-04-16T10:43:47;13.20;99.90
20479;DHT22;10398;52.490;13.434;2023-04-16T10:46:20;13.20;99.90
20479;DHT22;10398;52.490;13.434;2023-04-16T10:48:48;13.30;99.90
20479;DHT22;10398;52.490;13.434;2023-04-16T10:51:23;13.30;99.90
20479;DHT22;10398;52.490;13.434;2023-04-16T10:53:50;13.30;99.90
20479;DHT22;10398;52.490;13.434;2023-04-16T10:56:22;13.40;99.90
20479;DHT22;10398;52.490;13.434;2023-04-16T10:58:48;13.50;99.90
20479;DHT22;10398;52.490;13.434;2023-04-16T11:01:14;13.50;99.90
20479;DHT22;10398;52.490;13.434;2023-04-16T11:03:47;13.50;99.90
20479;DHT22;10398;52.490;13.434;2023-04-16T11:06:22;13.50;99.90
20479;DHT22;10398;52.490;13.434;2023-04-16T11:08:50;13.40;99.90
20479;DHT22;10398;52.490;13.434;2023-04-16T11:11:17;13.50;99.90
20479;DHT22;10398;52.490;13.434;2023-04-16T11:13:44;13.50;99.90
20479;DHT22;10398;52.490;13.434;2023-04-16T11:16:14;13.50;99.90
20479;DHT22;10398;52.490;13.434;2023-04-16T11:18:40;13.50;99.90
20479;DHT22;10398;52.490;13.434;2023-04-16T11:21:10;13.50;99.90
20479;DHT22;10398;52.490;13.434;2023-04-16T11:23:47;13.50;99.90
20479;DHT22;10398;52.490;13.434;2023-04-16T11:26:27;13.50;99.90
20479;DHT22;10398;52.490;13.434;2023-04-16T11:28:54;13.50;99.90
20479;DHT22;10398;52.490;13.434;2023-04-16T11:31:21;13.60;99.90
20479;DHT22;10398;52.490;13.434;2023-04-16T11:33:48;13.70;99.90
20479;DHT22;10398;52.490;13.434;2023-04-16T11:36:14;13.80;99.90
20479;DHT22;10398;52.490;13.434;2023-04-16T11:38:39;14.00;99.90
20479;DHT22;10398;52.490;13.434;2023-04-16T11:41:06;14.10;99.90
20479;DHT22;10398;52.490;13.434;2023-04-16T11:43:32;14.20;99.90
20479;DHT22;10398;52.490;13.434;2023-04-16T11:46:03;14.20;99.90
20479;DHT22;10398;52.490;13.434;2023-04-16T11:48:49;14.60;99.90
20479;DHT22;10398;52.490;13.434;2023-04-16T11:51:15;14.80;99.90
20479;DHT22;10398;52.490;13.434;2023-04-16T11:53:49;14.90;99.90
20479;DHT22;10398;52.490;13.434;2023-04-16T11:56:24;14.70;99.90
20479;DHT22;10398;52.490;13.434;2023-04-16T12:01:39;14.40;99.90
20479;DHT22;10398;52.490;13.434;2023-04-16T12:04:05;14.30;99.90
20479;DHT22;10398;52.490;13.434;2023-04-16T12:06:31;14.20;99.90
20479;DHT22;10398;52.490;13.434;2023-04-16T12:08:58;14.20;99.90
20479;DHT22;10398;52.490;13.434;2023-04-16T12:11:39;14.10;99.90
20479;DHT22;10398;52.490;13.434;2023-04-16T12:14:08;14.20;99.90
20479;DHT22;10398;52.490;13.434;2023-04-16T12:16:34;14.20;99.90
20479;DHT22;10398;52.490;13.434;2023-04-16T12:19:10;14.20;99.90
20479;DHT22;10398;52.490;13.434;2023-04-16T12:21:41;14.30;99.90
20479;DHT22;10398;52.490;13.434;2023-04-16T12:24:09;14.20;99.90
20479;DHT22;10398;52.490;13.434;2023-04-16T12:26:46;14.20;99.90
20479;DHT22;10398;52.490;13.434;2023-04-16T12:29:20;14.10;99.90
20479;DHT22;10398;52.490;13.434;2023-04-16T12:31:47;14.00;99.90
20479;DHT22;10398;52.490;13.434;2023-04-16T12:34:14;14.00;99.90
20479;DHT22;10398;52.490;13.434;2023-04-16T12:36:41;13.90;99.90
20479;DHT22;10398;52.490;13.434;2023-04-16T12:39:07;13.90;99.90
20479;DHT22;10398;52.490;13.434;2023-04-16T12:41:36;13.90;99.90
20479;DHT22;10398;52.490;13.434;2023-04-16T12:44:10;13.90;99.90
20479;DHT22;10398;52.490;13.434;2023-04-16T12:46:40;14.00;99.90
20479;DHT22;10398;52.490;13.434;2023-04-16T12:49:07;14.00;99.90
20479;DHT22;10398;52.490;13.434;2023-04-16T12:51:34;13.90;99.90
20479;DHT22;10398;52.490;13.434;2023-04-16T12:54:01;13.90;99.90
20479;DHT22;10398;52.490;13.434;2023-04-16T12:56:27;13.90;99.90
20479;DHT22;10398;52.490;13.434;2023-04-16T12:58:52;13.90;99.90
20479;DHT22;10398;52.490;13.434;2023-04-16T13:01:19;14.00;99.90
20479;DHT22;10398;52.490;13.434;2023-04-16T13:03:45;13.90;99.90
20479;DHT22;10398;52.490;13.434;2023-04-16T13:06:12;13.90;99.90
20479;DHT22;10398;52.490;13.434;2023-04-16T13:08:38;13.90;99.90
20479;DHT22;10398;52.490;13.434;2023-04-16T13:11:04;13.80;99.90
20479;DHT22;10398;52.490;13.434;2023-04-16T13:13:30;13.70;99.90
20479;DHT22;10398;52.490;13.434;2023-04-16T13:15:56;13.70;99.90
20479;DHT22;10398;52.490;13.434;2023-04-16T13:18:22;13.60;99.90
20479;DHT22;10398;52.490;13.434;2023-04-16T13:20:48;13.60;99.90
20479;DHT22;10398;52.490;13.434;2023-04-16T13:23:13;13.70;99.90
20479;DHT22;10398;52.490;13.434;2023-04-16T13:25:39;13.60;99.90
20479;DHT22;10398;52.490;13.434;2023-04-16T13:28:05;13.50;99.90
20479;DHT22;10398;52.490;13.434;2023-04-16T13:30:31;13.30;99.90
20479;DHT22;10398;52.490;13.434;2023-04-16T13:32:58;13.20;99.90
20479;DHT22;10398;52.490;13.434;2023-04-16T13:35:24;13.20;99.90
20479;DHT22;10398;52.490;13.434;2023-04-16T13:37:50;13.10;99.90
20479;DHT22;10398;52.490;13.434;2023-04-16T13:40:16;13.10;99.90
20479;DHT22;10398;52.490;13.434;2023-04-16T13:42:41;13.20;99.90
20479;DHT22;10398;52.490;13.434;2023-04-16T13:45:07;13.20;99.90
20479;DHT22;10398;52.490;13.434;2023-04-16T13:47:39;13.30;99.90
20479;DHT22;10398;52.490;13.434;2023-04-16T13:50:06;13.40;99.90
20479;DHT22;10398;52.490;13.434;2023-04-16T13:52:31;13.50;99.90
20479;DHT22;10398;52.490;13.434;2023-04-16T13:54:57;13.50;99.90
20479;DHT22;10398;52.490;13.434;2023-04-16T13:57:23;13.60;99.90
20479;DHT22;10398;52.490;13.434;2023-04-16T13:59:49;13.60;99.90
20479;DHT22;10398;52.490;13.434;2023-04-16T14:02:14;13.60;99.90
20479;DHT22;10398;52.490;13.434;2023-04-16T14:04:40;13.70;99.90
20479;DHT22;10398;52.490;13.434;2023-04-16T14:07:06;13.80;99.90
20479;DHT22;10398;52.490;13.434;2023-04-16T14:09:31;13.80;99.90
20479;DHT22;10398;52.490;13.434;2023-04-16T14:11:57;13.80;99.90
20479;DHT22;10398;52.490;13.434;2023-04-16T14:14:23;13.90;99.90
20479;DHT22;10398;52.490;13.434;2023-04-16T14:16:50;13.90;99.90
20479;DHT22;10398;52.490;13.434;2023-04-16T14:19:16;13.90;99.90
20479;DHT22;10398;52.490;13.434;2023-04-16T14:21:41;13.90;99.90
20479;DHT22;10398;52.490;13.434;2023-04-16T14:24:07;13.90;99.90
20479;DHT22;10398;52.490;13.434;2023-04-16T14:26:33;13.90;99.90
20479;DHT22;10398;52.490;13.434;2023-04-16T14:28:59;14.00;99.90
20479;DHT22;10398;52.490;13.434;2023-04-16T14:31:25;13.90;99.90
20479;DHT22;10398;52.490;13.434;2023-04-16T14:33:50;13.90;99.90
20479;DHT22;10398;52.490;13.434;2023-04-16T14:36:16;13.90;99.90
20479;DHT22;10398;52.490;13.434;2023-04-16T14:38:42;14.00;99.90
20479;DHT22;10398;52.490;13.434;2023-04-16T14:41:07;14.00;99.90
20479;DHT22;10398;52.490;13.434;2023-04-16T14:43:33;14.00;99.90
20479;DHT22;10398;52.490;13.434;2023-04-16T14:46:00;13.90;99.90
20479;DHT22;10398;52.490;13.434;2023-04-16T14:48:25;13.90;99.90
20479;DHT22;10398;52.490;13.434;2023-04-16T14:50:52;13.90;99.90
20479;DHT22;10398;52.490;13.434;2023-04-16T14:53:18;13.90;99.90
20479;DHT22;10398;52.490;13.434;2023-04-16T14:55:43;13.80;99.90
20479;DHT22;10398;52.490;13.434;2023-04-16T14:58:09;13.80;99.90
20479;DHT22;10398;52.490;13.434;2023-04-16T15:00:35;13.70;99.90
20479;DHT22;10398;52.490;13.434;2023-04-16T15:03:01;13.50;99.90
20479;DHT22;10398;52.490;13.434;2023-04-16T15:05:26;13.40;99.90
20479;DHT22;10398;52.490;13.434;2023-04-16T15:07:52;13.30;99.90
20479;DHT22;10398;52.490;13.434;2023-04-16T15:10:18;13.30;99.90
20479;DHT22;10398;52.490;13.434;2023-04-16T15:12:44;13.30;99.90
20479;DHT22;10398;52.490;13.434;2023-04-16T15:15:09;13.40;99.90
20479;DHT22;10398;52.490;13.434;2023-04-16T15:17:35;13.40;99.90
20479;DHT22;10398;52.490;13.434;2023-04-16T15:20:01;13.20;99.90